Time;durP1;ratioP1;P1;durP2;ratioP2;P2;SDS_P1;SDS_P2;PMS_P1;PMS_P2;Temp;Humidity;BMP_temperature;BMP_pressure;BME280_temperature;BME280_humidity;BME280_pressure;Samples;Min_cycle;Max_cycle;Signal;HPM_P1;HPM_P2
2024/02/25 00:03:04;;;;;;;27.15;16.90;;;24.00;52.40;;;;;;6114318;28;83196;-55
2024/02/25 00:06:08;;;;;;;26.02;16.58;;;24.00;52.40;;;;;;6125510;28;82972;-55
2024/02/25 00:09:08;;;;;;;27.52;16.95;;;24.00;52.20;;;;;;6125869;28;83096;-56
2024/02/25 00:12:49;;;;;;;25.27;15.55;;;24.00;52.10;;;;;;6121347;28;84062;-54
2024/02/25 00:15:49;;;;;;;27.08;15.88;;;24.00;52.20;;;;;;6126075;28;84619;-55
2024/02/25 00:18:59;;;;;;;23.83;14.90;;;23.90;51.90;;;;;;6125176;28;83534;-54
2024/02/25 00:25:31;;;;;;;23.52;15.32;;;24.00;52.20;;;;;;6125629;28;83384;-55
2024/02/25 00:29:13;;;;;;;31.13;18.15;;;23.90;52.00;;;;;;6124585;28;87669;-54
2024/02/25 00:40:09;;;;;;;;;;;;;;;;;;;;;
2024/02/25 00:43:49;;;;;;;;;;;;;;;;;;;;;
2024/02/25 02:48:46;;;;;;;22.73;14.73;;;23.70;50.40;;;;;;6104939;28;83370;-56
2024/02/25 02:51:47;;;;;;;22.10;13.20;;;23.70;50.50;;;;;;6151189;28;83270;-52
2024/02/25 02:54:47;;;;;;;23.02;14.63;;;23.70;50.50;;;;;;6128209;28;83235;-54
2024/02/25 02:57:48;;;;;;;23.17;15.55;;;23.70;50.20;;;;;;6127574;28;84132;-55
2024/02/25 03:00:48;;;;;;;22.77;13.93;;;23.70;50.10;;;;;;6119769;28;84144;-56
2024/02/25 03:03:49;;;;;;;20.70;12.52;;;23.80;50.40;;;;;;6126906;28;83526;-50
2024/02/25 03:06:49;;;;;;;24.20;15.07;;;23.70;50.30;;;;;;6127029;28;82926;-48
2024/02/25 07:29:02;;;;;;;17.80;12.63;;;24.10;49.30;;;;;;6335553;23;101361;-58
2024/02/25 07:32:03;;;;;;;18.52;12.23;;;24.10;49.40;;;;;;6079809;28;93013;-61
2024/02/25 07:35:03;;;;;;;21.70;12.25;;;24.10;49.30;;;;;;6088823;28;86035;-60
2024/02/25 07:38:04;;;;;;;19.83;11.70;;;24.10;49.70;;;;;;6082800;28;83520;-60
2024/02/25 07:41:04;;;;;;;16.88;11.93;;;24.10;50.50;;;;;;6102246;28;84803;-60
2024/02/25 07:44:04;;;;;;;16.05;11.07;;;24.20;49.80;;;;;;6101228;28;87227;-62
2024/02/25 07:47:05;;;;;;;21.08;11.63;;;24.20;50.10;;;;;;6092114;28;83136;-64
2024/02/25 07:50:06;;;;;;;16.83;11.73;;;24.20;49.90;;;;;;6098572;28;84992;-63
2024/02/25 07:53:06;;;;;;;17.98;12.32;;;24.30;49.80;;;;;;6088340;28;84417;-62
2024/02/25 07:56:07;;;;;;;17.95;11.55;;;24.30;49.70;;;;;;6093992;28;83747;-59
2024/02/25 07:59:07;;;;;;;17.85;11.65;;;24.30;49.50;;;;;;6098087;28;83441;-60
2024/02/25 08:02:08;;;;;;;17.40;10.80;;;24.40;49.80;;;;;;6090182;28;83057;-62
2024/02/25 08:05:08;;;;;;;14.65;10.77;;;24.50;50.00;;;;;;6099592;28;84063;-65
2024/02/25 08:08:09;;;;;;;17.60;11.63;;;24.40;49.80;;;;;;6102801;28;82844;-66
2024/02/25 08:11:09;;;;;;;20.45;12.32;;;24.50;49.80;;;;;;6088907;28;83509;-61
2024/02/25 08:14:10;;;;;;;20.42;12.55;;;24.50;49.80;;;;;;6086890;28;83675;-67
2024/02/25 08:17:12;;;;;;;19.40;12.25;;;24.50;49.70;;;;;;6097804;28;83400;-60
2024/02/25 08:20:12;;;;;;;17.67;11.68;;;24.40;49.80;;;;;;6098946;28;83167;-59
2024/02/25 08:23:15;;;;;;;18.25;11.90;;;24.50;50.10;;;;;;6088055;28;83407;-55
2024/02/25 08:26:15;;;;;;;20.23;12.70;;;24.50;50.10;;;;;;6089609;28;83188;-58
2024/02/25 08:29:16;;;;;;;19.38;10.93;;;24.50;49.90;;;;;;6089174;28;83687;-57
2024/02/25 08:32:16;;;;;;;18.02;9.90;;;24.50;50.10;;;;;;6099612;28;83516;-58
2024/02/25 08:35:17;;;;;;;14.73;9.77;;;24.50;50.00;;;;;;6102690;28;83041;-60
2024/02/25 08:38:17;;;;;;;16.83;11.63;;;24.50;49.80;;;;;;6095956;28;80157;-62
2024/02/25 08:41:18;;;;;;;17.23;11.77;;;24.50;49.50;;;;;;6096262;28;88646;-63
2024/02/25 08:44:18;;;;;;;19.10;11.80;;;24.40;49.00;;;;;;6101797;28;84059;-61
2024/02/25 08:47:19;;;;;;;16.85;11.77;;;24.50;48.70;;;;;;6099378;28;84645;-62
2024/02/25 08:50:19;;;;;;;15.30;10.98;;;24.50;48.50;;;;;;6097581;28;83471;-60
2024/02/25 08:53:20;;;;;;;17.83;12.18;;;24.50;48.50;;;;;;6094784;28;83175;-60
2024/02/25 08:56:21;;;;;;;16.58;11.27;;;24.50;48.40;;;;;;6090472;28;84281;-59
2024/02/25 08:59:21;;;;;;;16.02;11.23;;;24.60;48.10;;;;;;6100777;28;83535;-56
2024/02/25 09:02:22;;;;;;;25.33;15.88;;;24.60;48.30;;;;;;6092606;28;85183;-55
2024/02/25 09:05:22;;;;;;;28.83;18.60;;;24.60;47.90;;;;;;6102590;28;83467;-56
2024/02/25 09:08:23;;;;;;;28.50;20.27;;;24.50;46.80;;;;;;6101979;28;83042;-56
2024/02/25 09:11:24;;;;;;;28.45;20.58;;;24.40;46.20;;;;;;6102435;28;82841;-56
2024/02/25 09:14:24;;;;;;;28.30;20.30;;;24.30;46.20;;;;;;6101942;28;83358;-54
2024/02/25 09:17:26;;;;;;;29.77;21.48;;;24.30;45.50;;;;;;6100397;28;83497;-54
2024/02/25 09:20:29;;;;;;;34.85;23.05;;;24.30;44.90;;;;;;6102570;28;83649;-53
2024/02/25 09:23:30;;;;;;;32.33;21.88;;;24.20;44.80;;;;;;6104054;28;85224;-54
2024/02/25 09:26:30;;;;;;;31.83;22.67;;;24.20;44.80;;;;;;6086313;28;83147;-53
2024/02/25 09:29:31;;;;;;;32.45;23.40;;;24.30;44.50;;;;;;6092257;28;84175;-55
2024/02/25 09:32:33;;;;;;;34.30;23.15;;;24.30;44.00;;;;;;6101598;28;83094;-57
2024/02/25 09:35:33;;;;;;;32.83;22.10;;;24.30;44.00;;;;;;6089259;28;84194;-55
2024/02/25 09:38:34;;;;;;;31.13;21.08;;;24.30;44.40;;;;;;6095723;28;82671;-54
2024/02/25 09:41:39;;;;;;;29.73;21.85;;;24.30;44.10;;;;;;6090103;28;83178;-54
2024/02/25 09:44:40;;;;;;;28.40;20.30;;;24.30;44.30;;;;;;6099800;28;83182;-54
2024/02/25 09:47:40;;;;;;;29.17;20.70;;;24.30;44.10;;;;;;6103515;28;82794;-53
2024/02/25 09:50:41;;;;;;;27.30;19.70;;;24.40;44.30;;;;;;6102983;28;86429;-54
2024/02/25 09:53:42;;;;;;;32.22;23.98;;;24.40;44.10;;;;;;6103423;28;83096;-55
2024/02/25 09:56:43;;;;;;;36.67;25.77;;;24.40;44.00;;;;;;6095568;28;84151;-54
2024/02/25 09:59:44;;;;;;;40.22;28.05;;;24.40;44.90;;;;;;6094640;28;83896;-53
2024/02/25 10:02:45;;;;;;;89.57;53.15;;;24.40;44.80;;;;;;6102189;28;82809;-53
2024/02/25 10:05:45;;;;;;;113.07;69.50;;;24.40;45.10;;;;;;6097254;28;83385;-53
2024/02/25 10:08:46;;;;;;;94.25;58.28;;;24.40;45.10;;;;;;6097490;28;83117;-56
2024/02/25 10:11:46;;;;;;;82.00;54.53;;;24.40;44.90;;;;;;6097069;28;85745;-53
2024/02/25 10:14:47;;;;;;;74.88;49.25;;;24.40;44.90;;;;;;6099770;28;84886;-54
2024/02/25 10:17:48;;;;;;;86.75;61.90;;;24.40;44.60;;;;;;6098585;28;82992;-54
2024/02/25 10:20:48;;;;;;;136.88;79.75;;;24.40;44.90;;;;;;6101644;28;83259;-51
2024/02/25 10:23:49;;;;;;;111.10;64.97;;;24.30;44.60;;;;;;6102918;28;83287;-53
2024/02/25 10:26:49;;;;;;;113.97;67.18;;;24.30;44.30;;;;;;6099005;28;83334;-54
2024/02/25 10:29:50;;;;;;;83.45;52.42;;;24.20;43.90;;;;;;6100285;28;82825;-53
2024/02/25 10:32:51;;;;;;;86.28;54.25;;;24.20;45.00;;;;;;6106701;28;83159;-51
2024/02/25 10:35:51;;;;;;;76.20;49.60;;;24.10;44.40;;;;;;6096543;28;85871;-52
2024/02/25 10:38:52;;;;;;;98.80;57.33;;;24.10;47.20;;;;;;6102452;28;83085;-55
2024/02/25 10:41:53;;;;;;;75.35;48.15;;;24.10;47.10;;;;;;6104871;28;83084;-62
2024/02/25 10:44:54;;;;;;;64.07;38.97;;;24.00;46.70;;;;;;6100807;28;82871;-60
2024/02/25 10:47:55;;;;;;;46.70;29.95;;;24.00;44.90;;;;;;6105843;28;82948;-63
2024/02/25 10:50:56;;;;;;;46.15;30.38;;;24.00;44.90;;;;;;6106300;28;83022;-61
2024/02/25 10:53:57;;;;;;;50.75;32.30;;;24.00;46.20;;;;;;6105632;28;83311;-61
2024/02/25 10:56:57;;;;;;;48.25;30.75;;;24.00;46.80;;;;;;6101411;28;83348;-60
2024/02/25 10:59:58;;;;;;;100.13;74.10;;;24.00;48.10;;;;;;6102884;28;82881;-59
2024/02/25 11:02:58;;;;;;;178.40;125.63;;;24.00;47.60;;;;;;6101091;28;84662;-62
2024/02/25 11:06:00;;;;;;;164.38;111.28;;;24.00;46.00;;;;;;6098107;28;85773;-62
2024/02/25 11:09:00;;;;;;;103.60;68.80;;;24.00;47.00;;;;;;6098715;28;85856;-61
2024/02/25 11:12:03;;;;;;;110.38;74.10;;;24.00;43.40;;;;;;6099777;28;85039;-61
2024/02/25 11:15:05;;;;;;;99.75;59.58;;;24.10;46.20;;;;;;6102447;28;83878;-60
2024/02/25 11:18:06;;;;;;;56.65;33.17;;;24.20;45.40;;;;;;6104482;28;86217;-61
2024/02/25 11:21:07;;;;;;;24.90;15.18;;;24.10;43.90;;;;;;6101979;28;83557;-60
2024/02/25 11:24:12;;;;;;;15.88;10.10;;;24.10;42.90;;;;;;6103712;28;83118;-59
2024/02/25 11:27:12;;;;;;;18.90;11.27;;;24.10;42.30;;;;;;6085288;28;84684;-60
2024/02/25 11:30:13;;;;;;;15.50;8.32;;;24.10;43.30;;;;;;6103670;28;84706;-60
2024/02/25 11:33:13;;;;;;;12.38;7.03;;;24.10;40.90;;;;;;6107821;28;82832;-61
2024/02/25 11:36:20;;;;;;;11.95;6.90;;;24.20;41.10;;;;;;6107493;28;80367;-61
2024/02/25 11:39:21;;;;;;;5.97;3.65;;;24.20;43.60;;;;;;6106161;28;80979;-61
2024/02/25 11:42:21;;;;;;;5.13;2.80;;;24.20;43.10;;;;;;6104444;28;81159;-61
2024/02/25 11:45:22;;;;;;;6.70;3.63;;;24.10;40.70;;;;;;6106431;28;80628;-60
2024/02/25 11:48:22;;;;;;;9.05;3.70;;;24.10;39.60;;;;;;6106814;28;80670;-59
2024/02/25 11:51:23;;;;;;;7.57;3.45;;;24.10;40.90;;;;;;6105772;28;80444;-61
2024/02/25 11:54:23;;;;;;;5.82;4.10;;;24.10;38.90;;;;;;6107409;28;83034;-61
2024/02/25 11:57:24;;;;;;;6.78;3.53;;;24.20;38.60;;;;;;6105349;28;81427;-60
2024/02/25 12:00:24;;;;;;;6.72;3.90;;;24.30;40.70;;;;;;6108660;28;80254;-61
2024/02/25 12:03:25;;;;;;;5.15;3.25;;;24.20;40.60;;;;;;6094618;28;82467;-60
2024/02/25 12:06:26;;;;;;;6.70;4.15;;;24.20;40.30;;;;;;6104714;28;80962;-60
2024/02/25 12:09:26;;;;;;;5.53;3.47;;;24.20;39.30;;;;;;6103157;28;80945;-59
2024/02/25 12:12:27;;;;;;;5.57;3.22;;;24.20;41.10;;;;;;6107745;28;80936;-60
2024/02/25 12:15:30;;;;;;;7.22;3.30;;;24.20;41.30;;;;;;6099843;28;85396;-59
2024/02/25 12:18:31;;;;;;;8.55;4.30;;;24.20;42.20;;;;;;6107952;28;80781;-56
2024/02/25 12:21:31;;;;;;;7.80;3.85;;;24.20;41.40;;;;;;6107530;28;80354;-59
2024/02/25 12:24:33;;;;;;;6.78;3.53;;;24.20;42.10;;;;;;6104116;28;81514;-61
2024/02/25 12:27:34;;;;;;;8.00;3.97;;;24.10;41.50;;;;;;6104122;28;81816;-54
2024/02/25 12:30:37;;;;;;;9.75;4.85;;;24.10;41.30;;;;;;6103769;28;81773;-54
2024/02/25 12:33:38;;;;;;;9.05;4.45;;;24.10;41.20;;;;;;6101764;28;80934;-58
2024/02/25 12:36:38;;;;;;;11.38;5.57;;;24.10;42.70;;;;;;6096715;28;83343;-56
2024/02/25 12:39:39;;;;;;;10.10;5.03;;;24.00;42.00;;;;;;6101985;28;80649;-56
2024/02/25 12:42:44;;;;;;;9.07;5.80;;;24.00;43.80;;;;;;6105400;28;80467;-58
2024/02/25 12:45:44;;;;;;;14.98;6.38;;;23.80;42.90;;;;;;6094293;28;80563;-59
2024/02/25 12:48:45;;;;;;;10.73;5.72;;;23.70;41.50;;;;;;6093856;28;80296;-59
2024/02/25 12:51:45;;;;;;;10.88;4.97;;;23.70;41.20;;;;;;6085560;28;83359;-60
2024/02/25 12:54:46;;;;;;;11.35;5.43;;;23.70;41.10;;;;;;6095817;28;83141;-61
2024/02/25 12:57:46;;;;;;;7.70;5.15;;;23.70;42.10;;;;;;6101296;28;81273;-61
2024/02/25 13:00:48;;;;;;;9.23;5.72;;;23.70;44.80;;;;;;6102916;28;80453;-59
2024/02/25 13:03:49;;;;;;;9.82;5.55;;;23.70;44.10;;;;;;6088474;28;80623;-59
2024/02/25 13:06:49;;;;;;;8.63;5.40;;;23.70;42.60;;;;;;6100853;28;81477;-60
2024/02/25 13:09:50;;;;;;;8.13;4.55;;;23.70;43.30;;;;;;6104152;28;83394;-60
2024/02/25 13:12:51;;;;;;;8.63;5.50;;;23.70;43.30;;;;;;6104319;28;81168;-58
2024/02/25 13:15:51;;;;;;;7.20;5.32;;;23.60;42.80;;;;;;6100370;28;81079;-59
2024/02/25 13:18:52;;;;;;;7.30;4.68;;;23.60;43.90;;;;;;6104096;28;80119;-60
2024/02/25 13:21:53;;;;;;;7.82;4.72;;;23.70;44.70;;;;;;6102670;28;80221;-60
2024/02/25 13:24:53;;;;;;;7.65;4.93;;;23.70;45.20;;;;;;6103716;28;80802;-60
2024/02/25 13:27:54;;;;;;;7.72;4.72;;;23.70;41.70;;;;;;6096594;28;80993;-56
2024/02/25 13:30:54;;;;;;;8.32;5.03;;;23.70;42.60;;;;;;6102103;28;82658;-58
2024/02/25 13:33:55;;;;;;;10.90;4.53;;;23.70;42.40;;;;;;6101270;28;82571;-60
2024/02/25 13:36:56;;;;;;;11.13;5.20;;;23.60;42.80;;;;;;6101953;28;80194;-57
2024/02/25 13:39:56;;;;;;;8.93;4.20;;;23.70;42.50;;;;;;6102989;28;80377;-57
2024/02/25 13:42:57;;;;;;;10.20;4.85;;;23.60;43.00;;;;;;6103591;28;81003;-62
2024/02/25 13:45:57;;;;;;;7.72;4.20;;;23.60;42.20;;;;;;6104749;28;80389;-62
2024/02/25 13:48:58;;;;;;;8.63;4.90;;;23.60;43.00;;;;;;6103949;28;81225;-63
2024/02/25 13:52:02;;;;;;;6.60;4.15;;;23.60;43.30;;;;;;6108941;28;80692;-62
2024/02/25 13:55:02;;;;;;;6.43;3.88;;;23.60;43.50;;;;;;6107821;28;80816;-58
2024/02/25 13:58:03;;;;;;;6.97;4.00;;;23.70;43.00;;;;;;6090485;28;80711;-63
2024/02/25 14:01:03;;;;;;;6.13;4.25;;;23.60;43.10;;;;;;6096709;28;81061;-60
2024/02/25 14:04:04;;;;;;;6.88;4.10;;;23.60;43.10;;;;;;6099507;28;80153;-62
2024/02/25 14:07:04;;;;;;;7.28;3.92;;;23.70;42.90;;;;;;6094501;28;81050;-61
2024/02/25 14:10:05;;;;;;;6.50;3.47;;;23.70;42.60;;;;;;6108830;28;80796;-61
2024/02/25 14:13:06;;;;;;;6.70;3.55;;;23.70;42.90;;;;;;6107619;28;80457;-61
2024/02/25 14:16:06;;;;;;;10.10;3.53;;;23.70;42.50;;;;;;6108634;28;80805;-61
2024/02/25 14:19:07;;;;;;;5.47;3.92;;;23.60;42.40;;;;;;6108430;28;80641;-61
2024/02/25 14:22:07;;;;;;;5.20;3.33;;;23.60;42.30;;;;;;6107139;28;81456;-60
2024/02/25 14:25:08;;;;;;;7.45;4.20;;;23.60;42.30;;;;;;6108140;28;86709;-59
2024/02/25 14:28:08;;;;;;;8.60;3.90;;;23.60;42.60;;;;;;6106975;28;80532;-60
2024/02/25 14:31:09;;;;;;;5.60;3.53;;;23.50;42.40;;;;;;6109028;28;80893;-61
2024/02/25 14:34:10;;;;;;;7.20;3.63;;;23.50;41.90;;;;;;6107124;28;81314;-61
2024/02/25 14:37:14;;;;;;;6.97;2.83;;;23.50;41.90;;;;;;6096745;28;80735;-61
2024/02/25 14:40:16;;;;;;;3.97;2.50;;;23.50;41.40;;;;;;6102783;28;80378;-60
2024/02/25 14:43:16;;;;;;;4.45;2.45;;;23.50;41.10;;;;;;6107195;28;82448;-60
2024/02/25 14:46:17;;;;;;;3.65;2.15;;;23.40;41.20;;;;;;6106853;28;80758;-61
2024/02/25 14:49:17;;;;;;;3.15;2.05;;;23.40;40.70;;;;;;6107770;28;80493;-62
2024/02/25 14:52:18;;;;;;;4.32;1.83;;;23.40;39.70;;;;;;6106495;28;81903;-62
2024/02/25 14:55:18;;;;;;;2.60;1.70;;;23.30;38.90;;;;;;6106902;28;80552;-61
2024/02/25 14:58:19;;;;;;;2.90;1.65;;;23.30;38.30;;;;;;6091377;28;82343;-61
2024/02/25 15:01:19;;;;;;;2.42;1.83;;;23.20;38.10;;;;;;6079497;28;81616;-63
2024/02/25 15:04:20;;;;;;;3.95;1.63;;;23.20;38.70;;;;;;6086400;28;81134;-64
2024/02/25 15:07:21;;;;;;;2.45;1.65;;;23.20;39.30;;;;;;6085363;28;84726;-65
2024/02/25 15:10:21;;;;;;;4.90;1.70;;;23.30;40.00;;;;;;6084446;28;84801;-65
2024/02/25 15:13:23;;;;;;;3.85;1.80;;;23.40;40.50;;;;;;6084152;28;81940;-62
2024/02/25 15:16:23;;;;;;;4.38;1.48;;;23.40;41.30;;;;;;6085101;28;81697;-64
2024/02/25 15:19:24;;;;;;;2.42;1.73;;;23.40;41.20;;;;;;6078626;28;81822;-65
2024/02/25 15:22:24;;;;;;;2.92;1.48;;;23.50;41.60;;;;;;6082727;28;83498;-63
2024/02/25 15:25:25;;;;;;;2.70;1.60;;;23.50;42.30;;;;;;6088347;28;81666;-62
2024/02/25 15:28:25;;;;;;;4.28;1.70;;;23.60;42.60;;;;;;6088293;28;82058;-62
2024/02/25 15:31:26;;;;;;;4.80;1.80;;;23.60;43.30;;;;;;6083856;28;81210;-59
2024/02/25 15:34:26;;;;;;;3.35;1.60;;;23.60;43.50;;;;;;6084560;28;81742;-62
2024/02/25 15:37:27;;;;;;;4.30;2.00;;;23.70;44.10;;;;;;6088910;28;81717;-61
2024/02/25 15:40:27;;;;;;;3.30;1.70;;;23.70;44.50;;;;;;6087290;28;82068;-63
2024/02/25 15:43:28;;;;;;;3.67;1.73;;;23.70;44.50;;;;;;6084087;28;81625;-61
2024/02/25 15:46:29;;;;;;;5.28;1.98;;;23.70;44.70;;;;;;6085549;28;81572;-62
2024/02/25 15:49:29;;;;;;;2.53;1.63;;;23.80;44.80;;;;;;6086860;28;82232;-63
2024/02/25 15:52:31;;;;;;;3.83;2.08;;;23.80;45.10;;;;;;6081996;28;83896;-61
2024/02/25 15:55:31;;;;;;;3.40;1.67;;;23.80;45.30;;;;;;6087977;28;81333;-62
2024/02/25 15:58:32;;;;;;;2.38;1.45;;;23.90;45.60;;;;;;6086262;28;81444;-62
2024/02/25 16:01:32;;;;;;;3.72;1.70;;;23.90;45.70;;;;;;6077751;28;81657;-61
2024/02/25 16:04:33;;;;;;;5.05;1.90;;;23.90;45.70;;;;;;6086943;28;86587;-60
2024/02/25 16:07:34;;;;;;;2.70;1.65;;;23.90;45.70;;;;;;6087731;28;82501;-62
2024/02/25 16:10:34;;;;;;;4.88;1.80;;;24.00;45.80;;;;;;6086572;28;81644;-62
2024/02/25 16:13:35;;;;;;;3.35;1.77;;;23.90;45.90;;;;;;6081987;28;81527;-61
2024/02/25 16:16:35;;;;;;;3.30;1.60;;;24.00;45.90;;;;;;6085589;28;81736;-61
2024/02/25 16:19:36;;;;;;;2.42;1.45;;;24.00;46.00;;;;;;6082902;28;81340;-60
2024/02/25 16:22:37;;;;;;;3.08;1.80;;;24.00;45.90;;;;;;6081532;28;83704;-60
2024/02/25 16:25:40;;;;;;;4.13;1.77;;;24.00;46.00;;;;;;6102364;28;80722;-61
2024/02/25 16:28:41;;;;;;;2.60;1.80;;;24.00;46.20;;;;;;6097426;28;88904;-60
2024/02/25 16:31:42;;;;;;;3.08;1.80;;;24.00;46.20;;;;;;6092439;28;80446;-61
2024/02/25 16:34:42;;;;;;;3.55;1.77;;;24.00;46.50;;;;;;6094559;28;81188;-60
2024/02/25 16:37:44;;;;;;;5.45;1.95;;;24.00;46.60;;;;;;6087615;28;87583;-56
2024/02/25 16:40:44;;;;;;;3.40;1.90;;;24.00;46.60;;;;;;6103049;28;80882;-54
2024/02/25 16:43:45;;;;;;;1.90;1.63;;;24.00;46.70;;;;;;6105315;28;82647;-58
2024/02/25 16:46:45;;;;;;;4.88;2.53;;;24.00;46.80;;;;;;6095491;28;80657;-61
2024/02/25 16:49:46;;;;;;;4.90;2.00;;;24.10;46.90;;;;;;6096313;28;80338;-60
2024/02/25 16:52:48;;;;;;;3.28;1.70;;;24.10;46.80;;;;;;6100857;28;83659;-60
2024/02/25 16:55:49;;;;;;;9.23;2.17;;;24.10;46.70;;;;;;6099518;28;81479;-58
2024/02/25 16:58:49;;;;;;;3.67;2.08;;;24.10;46.90;;;;;;6105636;28;80902;-59
2024/02/25 17:01:50;;;;;;;8.63;2.33;;;24.10;47.00;;;;;;6099252;28;80658;-60
2024/02/25 17:04:50;;;;;;;3.95;2.33;;;24.10;47.10;;;;;;6102298;28;82688;-56
2024/02/25 17:07:51;;;;;;;17.92;2.83;;;24.10;46.90;;;;;;6107168;28;81203;-57
2024/02/25 17:10:52;;;;;;;7.00;1.80;;;24.10;47.00;;;;;;6105466;28;80790;-57
2024/02/25 17:13:52;;;;;;;6.80;2.45;;;24.10;47.30;;;;;;6106838;28;81986;-54
2024/02/25 17:16:54;;;;;;;9.95;2.60;;;24.10;47.40;;;;;;6096265;28;82009;-50
2024/02/25 17:19:55;;;;;;;3.25;2.00;;;24.10;47.40;;;;;;6107068;28;81397;-55
2024/02/25 17:22:56;;;;;;;6.65;2.72;;;24.10;47.40;;;;;;6103960;28;81436;-58
2024/02/25 17:25:56;;;;;;;3.60;2.28;;;24.10;48.00;;;;;;6104970;28;82109;-54
2024/02/25 17:28:58;;;;;;;8.27;2.67;;;24.10;47.80;;;;;;6104470;28;82555;-56
2024/02/25 17:31:59;;;;;;;13.00;2.47;;;24.10;48.10;;;;;;6102765;28;81494;-57
2024/02/25 17:34:59;;;;;;;6.30;2.55;;;24.10;48.30;;;;;;6104359;28;80839;-58
2024/02/25 17:38:01;;;;;;;7.05;2.13;;;24.20;48.30;;;;;;6102900;28;84271;-57
2024/02/25 17:41:01;;;;;;;6.65;2.50;;;24.20;48.30;;;;;;6104439;28;80768;-60
2024/02/25 17:44:02;;;;;;;5.40;2.92;;;24.20;48.30;;;;;;6105569;28;80431;-56
2024/02/25 17:47:02;;;;;;;4.88;2.90;;;24.20;48.40;;;;;;6102827;28;81141;-58
2024/02/25 17:50:03;;;;;;;7.72;3.22;;;24.20;48.60;;;;;;6102700;28;83186;-57
2024/02/25 17:53:04;;;;;;;6.22;2.78;;;24.20;48.80;;;;;;6098265;28;81025;-56
2024/02/25 17:56:06;;;;;;;9.02;3.60;;;24.20;49.00;;;;;;6092553;28;80646;-57
2024/02/25 17:59:06;;;;;;;10.80;3.53;;;24.20;49.10;;;;;;6102048;28;80601;-56
2024/02/25 18:02:07;;;;;;;6.35;3.53;;;24.20;49.00;;;;;;6097582;28;80632;-56
2024/02/25 18:05:08;;;;;;;9.10;3.63;;;24.30;48.90;;;;;;6103222;28;81310;-57
2024/02/25 18:08:10;;;;;;;7.68;3.42;;;24.20;48.80;;;;;;6105746;28;80243;-59
2024/02/25 18:11:11;;;;;;;14.85;3.45;;;24.30;48.80;;;;;;6105281;28;81039;-57
2024/02/25 18:14:12;;;;;;;5.85;3.33;;;24.30;49.00;;;;;;6103112;28;84881;-54
2024/02/25 18:17:13;;;;;;;7.40;3.97;;;24.30;49.10;;;;;;6101807;28;81164;-56
2024/02/25 18:20:13;;;;;;;6.65;3.95;;;24.30;48.90;;;;;;6103986;28;80769;-55
2024/02/25 18:23:15;;;;;;;5.40;3.55;;;24.30;48.90;;;;;;6103345;28;81829;-57
2024/02/25 18:26:16;;;;;;;7.63;3.25;;;24.30;48.80;;;;;;6081643;28;80431;-56
2024/02/25 18:29:17;;;;;;;5.72;3.20;;;24.30;48.80;;;;;;6105516;28;80821;-57
2024/02/25 18:32:17;;;;;;;5.88;3.65;;;24.30;48.70;;;;;;6101507;28;80576;-56
2024/02/25 18:35:18;;;;;;;6.85;3.67;;;24.30;48.40;;;;;;6101158;28;80410;-55
2024/02/25 18:38:19;;;;;;;6.80;3.58;;;24.30;48.40;;;;;;6100207;28;82214;-57
2024/02/25 18:41:19;;;;;;;10.25;4.90;;;24.30;48.30;;;;;;6110102;28;80665;-55
2024/02/25 18:44:20;;;;;;;4.68;3.80;;;24.30;48.40;;;;;;6103431;28;80960;-52
2024/02/25 18:47:20;;;;;;;6.90;4.10;;;24.30;48.20;;;;;;6068106;28;84997;-52
2024/02/25 18:50:23;;;;;;;11.50;3.90;;;24.20;48.10;;;;;;6089819;28;81942;-56
2024/02/25 18:53:23;;;;;;;5.93;3.83;;;24.20;48.20;;;;;;6086700;28;81559;-56
2024/02/25 18:56:25;;;;;;;8.13;4.40;;;24.20;48.10;;;;;;6089123;28;82569;-57
2024/02/25 18:59:26;;;;;;;7.22;4.20;;;24.20;47.60;;;;;;6069638;28;83236;-59
2024/02/25 19:02:27;;;;;;;7.25;4.13;;;24.10;47.50;;;;;;6080579;28;80517;-56
2024/02/25 19:05:28;;;;;;;6.93;4.47;;;24.10;47.20;;;;;;6068150;28;82114;-57
2024/02/25 19:08:28;;;;;;;5.80;4.13;;;24.10;47.50;;;;;;6091577;28;81541;-56
2024/02/25 19:11:29;;;;;;;10.23;4.85;;;24.00;47.40;;;;;;6072806;28;84319;-55
2024/02/25 19:14:29;;;;;;;8.77;4.90;;;24.00;47.80;;;;;;6092589;28;81569;-55
2024/02/25 19:17:30;;;;;;;8.02;5.25;;;24.10;48.00;;;;;;6092651;28;81267;-56
2024/02/25 19:20:31;;;;;;;9.20;5.95;;;24.10;48.00;;;;;;6087905;28;81130;-56
2024/02/25 19:23:31;;;;;;;12.75;6.78;;;24.10;47.90;;;;;;6093293;28;81748;-59
2024/02/25 19:26:34;;;;;;;12.13;6.68;;;24.10;48.40;;;;;;6090309;28;81086;-59
2024/02/25 19:29:34;;;;;;;11.35;6.72;;;24.10;48.60;;;;;;6090596;28;81940;-60
2024/02/25 19:32:35;;;;;;;13.23;6.85;;;24.20;48.70;;;;;;6086955;28;84873;-59
2024/02/25 19:35:36;;;;;;;9.95;6.70;;;24.20;48.70;;;;;;6080184;28;81290;-60
2024/02/25 19:38:36;;;;;;;11.35;6.55;;;24.20;48.90;;;;;;6079138;28;80172;-57
2024/02/25 19:41:37;;;;;;;10.60;6.57;;;24.20;48.90;;;;;;6091648;28;82923;-59
2024/02/25 19:44:38;;;;;;;11.55;6.97;;;24.20;48.70;;;;;;6088648;28;80859;-60
2024/02/25 19:47:39;;;;;;;13.27;7.93;;;24.20;49.10;;;;;;6091611;28;82533;-61
2024/02/25 19:50:39;;;;;;;13.13;7.90;;;24.20;48.30;;;;;;6092532;28;82761;-58
2024/02/25 19:53:40;;;;;;;13.70;7.82;;;24.20;48.40;;;;;;6085071;28;82700;-58
2024/02/25 19:56:41;;;;;;;14.60;8.05;;;24.20;48.10;;;;;;6087511;28;81358;-58
2024/02/25 19:59:42;;;;;;;13.07;7.90;;;24.20;48.30;;;;;;6092387;28;81461;-60
2024/02/25 20:02:42;;;;;;;13.52;8.05;;;24.20;48.20;;;;;;6102554;28;80607;-57
2024/02/25 20:05:44;;;;;;;15.90;8.48;;;24.30;48.40;;;;;;6087809;28;82631;-53
2024/02/25 20:08:45;;;;;;;13.45;8.82;;;24.20;47.80;;;;;;6086359;28;82639;-55
2024/02/25 20:11:45;;;;;;;13.93;8.98;;;24.20;47.90;;;;;;6100768;28;81541;-55
2024/02/25 20:14:46;;;;;;;12.45;8.25;;;24.20;47.80;;;;;;6104484;28;80210;-55
2024/02/25 20:17:47;;;;;;;13.90;7.97;;;24.20;47.60;;;;;;6105116;28;83331;-55
2024/02/25 20:20:47;;;;;;;16.08;8.93;;;24.20;48.40;;;;;;6102004;28;80256;-55
2024/02/25 20:23:48;;;;;;;13.93;8.32;;;24.30;48.00;;;;;;6099312;28;80444;-55
2024/02/25 20:26:48;;;;;;;13.40;8.40;;;24.30;48.30;;;;;;6099904;28;81618;-57
2024/02/25 20:29:49;;;;;;;13.35;8.25;;;24.20;47.80;;;;;;6096526;28;81239;-56
2024/02/25 20:32:49;;;;;;;16.10;8.45;;;24.20;48.10;;;;;;6104667;28;80271;-55
2024/02/25 20:35:50;;;;;;;15.57;8.45;;;24.20;47.80;;;;;;6097880;28;80818;-54
2024/02/25 20:38:51;;;;;;;11.98;7.93;;;24.20;48.00;;;;;;6098925;28;81137;-55
2024/02/25 20:41:51;;;;;;;13.48;8.38;;;24.20;47.90;;;;;;6098904;28;80404;-56
2024/02/25 20:44:52;;;;;;;14.13;8.73;;;24.20;48.10;;;;;;6095867;28;83771;-54
2024/02/25 20:47:53;;;;;;;12.70;7.75;;;24.20;48.10;;;;;;6104018;28;81787;-54
2024/02/25 20:50:53;;;;;;;12.75;7.65;;;24.30;48.90;;;;;;6104974;28;86134;-52
2024/02/25 20:53:54;;;;;;;15.25;7.88;;;24.20;48.20;;;;;;6097905;28;82030;-54
2024/02/25 20:56:55;;;;;;;16.40;8.75;;;24.20;48.30;;;;;;6102366;28;80620;-50
2024/02/25 21:00:01;;;;;;;14.90;8.75;;;24.20;48.40;;;;;;6101328;28;80656;-50
2024/02/25 21:03:02;;;;;;;14.50;8.55;;;24.30;48.30;;;;;;6100033;28;80439;-58
2024/02/25 21:06:02;;;;;;;11.82;7.35;;;24.30;48.30;;;;;;6094806;28;81696;-53
2024/02/25 21:09:03;;;;;;;13.82;7.82;;;24.30;48.20;;;;;;6101093;28;81809;-56
2024/02/25 21:12:06;;;;;;;11.38;7.68;;;24.30;48.40;;;;;;6102565;28;81642;-54
2024/02/25 21:15:07;;;;;;;11.60;7.30;;;24.30;48.00;;;;;;6103415;28;81708;-59
2024/02/25 21:18:07;;;;;;;12.02;7.55;;;24.30;48.60;;;;;;6098796;28;82026;-59
2024/02/25 21:21:09;;;;;;;14.02;7.47;;;24.20;48.00;;;;;;6097470;28;84437;-57
2024/02/25 21:24:10;;;;;;;12.02;7.90;;;24.20;48.00;;;;;;6082747;28;80545;-52
2024/02/25 21:27:10;;;;;;;15.77;8.98;;;24.20;47.90;;;;;;6098879;28;80652;-59
2024/02/25 21:30:11;;;;;;;13.30;8.48;;;24.20;47.70;;;;;;6100153;28;80968;-60
2024/02/25 21:33:11;;;;;;;13.10;8.38;;;24.20;47.80;;;;;;6098485;28;80291;-59
2024/02/25 21:36:12;;;;;;;14.63;8.80;;;24.20;47.80;;;;;;6096172;28;80758;-60
2024/02/25 21:39:14;;;;;;;14.10;8.52;;;24.20;48.50;;;;;;6102140;28;81196;-61
2024/02/25 21:42:15;;;;;;;15.73;9.40;;;24.20;48.00;;;;;;6102002;28;82059;-62
2024/02/25 21:45:15;;;;;;;15.65;9.23;;;24.20;47.90;;;;;;6099338;28;83472;-60
2024/02/25 21:48:16;;;;;;;12.02;8.05;;;24.20;47.90;;;;;;6101732;28;81735;-60
2024/02/25 21:51:16;;;;;;;15.60;9.50;;;24.20;47.80;;;;;;6090058;28;81054;-60
2024/02/25 21:54:17;;;;;;;15.20;9.52;;;24.20;47.80;;;;;;6095888;28;84311;-60
2024/02/25 21:57:17;;;;;;;15.57;9.13;;;24.10;47.70;;;;;;6098492;28;80173;-60
2024/02/25 22:00:18;;;;;;;15.05;9.65;;;24.20;47.70;;;;;;6097312;28;80532;-59
2024/02/25 22:03:18;;;;;;;15.07;9.73;;;24.20;47.70;;;;;;6099632;28;81495;-58
2024/02/25 22:06:19;;;;;;;17.63;9.50;;;24.20;47.60;;;;;;6093897;28;81544;-60
2024/02/25 22:09:19;;;;;;;16.35;9.38;;;24.20;47.50;;;;;;6099437;28;83423;-58